createdAt,value
2019-03-30T00:01:43.347Z,72.60
2019-03-30T00:04:28.855Z,72.70
2019-03-30T00:07:22.562Z,73.20
2019-03-30T00:10:16.279Z,74.30
2019-03-30T00:13:01.501Z,73.70
2019-03-30T00:15:55.411Z,74.20
2019-03-30T00:18:41.504Z,74.80
2019-03-30T00:21:26.822Z,74.80
2019-03-30T00:24:20.910Z,75.50
2019-03-30T00:27:06.007Z,75.60
2019-03-30T00:29:59.803Z,75.80
2019-03-30T00:32:44.323Z,75.90
2019-03-30T00:35:29.028Z,75.90
2019-03-30T00:38:13.855Z,75.80
2019-03-30T00:40:58.511Z,76.10
2019-03-30T00:43:43.463Z,76.20
2019-03-30T00:46:28.055Z,77.10
2019-03-30T00:49:12.793Z,76.30
2019-03-30T00:51:57.687Z,76.50
2019-03-30T00:54:42.659Z,76.30
2019-03-30T00:57:36.963Z,75.80
2019-03-30T01:00:21.893Z,75.90
2019-03-30T01:03:06.232Z,76.00
2019-03-30T01:05:51.123Z,76.70
2019-03-30T01:08:35.634Z,76.10
2019-03-30T01:11:20.357Z,74.90
2019-03-30T01:14:15.358Z,74.90
2019-03-30T01:17:00.476Z,74.80
2019-03-30T01:20:02.688Z,74.80
2019-03-30T01:22:50.308Z,75.00
2019-03-30T01:25:44.395Z,75.00
2019-03-30T01:28:38.013Z,74.90
2019-03-30T01:31:23.079Z,74.80
2019-03-30T01:34:08.034Z,74.80
2019-03-30T01:36:53.459Z,74.80
2019-03-30T01:39:38.439Z,74.70
2019-03-30T01:42:23.159Z,74.70
2019-03-30T01:45:07.439Z,74.60
2019-03-30T01:48:00.756Z,75.20
2019-03-30T01:50:45.246Z,75.70
2019-03-30T01:53:30.068Z,76.00
2019-03-30T01:56:14.575Z,76.40
2019-03-30T01:59:08.052Z,76.80
2019-03-30T02:01:52.706Z,76.80
2019-03-30T02:04:37.510Z,76.60
2019-03-30T02:07:22.487Z,76.60
2019-03-30T02:10:07.291Z,76.70
2019-03-30T02:12:52.203Z,76.20
2019-03-30T02:15:36.528Z,75.50
2019-03-30T02:18:21.827Z,74.70
2019-03-30T02:21:06.410Z,74.40
2019-03-30T02:23:51.779Z,74.60
2019-03-30T02:26:45.321Z,75.10
2019-03-30T02:29:30.246Z,74.70
2019-03-30T02:32:14.890Z,74.70
2019-03-30T02:34:59.307Z,74.60
2019-03-30T02:37:44.540Z,74.80
2019-03-30T02:40:29.201Z,74.80
2019-03-30T02:43:14.383Z,75.40
2019-03-30T02:45:59.168Z,76.50
2019-03-30T02:48:43.904Z,76.80
2019-03-30T02:51:28.811Z,76.70
2019-03-30T02:54:13.455Z,76.70
2019-03-30T02:56:58.567Z,76.60
2019-03-30T02:59:52.132Z,76.10
2019-03-30T03:02:37.089Z,75.50
2019-03-30T03:05:21.364Z,75.40
2019-03-30T03:08:06.312Z,75.60
2019-03-30T03:10:51.408Z,75.90
2019-03-30T03:13:36.467Z,76.20
2019-03-30T03:16:21.307Z,76.50
2019-03-30T03:19:06.014Z,76.00
2019-03-30T03:21:50.863Z,76.20
2019-03-30T03:24:35.676Z,76.90
2019-03-30T03:27:20.432Z,77.00
2019-03-30T03:30:05.832Z,76.90
2019-03-30T03:32:59.396Z,77.10
2019-03-30T03:35:44.131Z,77.10
2019-03-30T03:38:28.967Z,77.40
2019-03-30T03:41:13.495Z,77.80
2019-03-30T03:43:58.191Z,77.80
2019-03-30T03:46:42.757Z,77.80
2019-03-30T03:49:27.711Z,77.70
2019-03-30T03:52:12.239Z,77.70
2019-03-30T03:54:57.591Z,77.70
2019-03-30T03:57:42.419Z,77.80
2019-03-30T04:00:27.227Z,77.60
2019-03-30T04:03:12.340Z,77.60
2019-03-30T04:05:57.436Z,77.90
2019-03-30T04:08:51.006Z,77.60
2019-03-30T04:11:35.634Z,77.10
2019-03-30T04:14:20.401Z,77.10
2019-03-30T04:17:05.539Z,77.30
2019-03-30T04:19:50.397Z,77.30
2019-03-30T04:22:35.471Z,77.70
2019-03-30T04:25:29.560Z,78.00
2019-03-30T04:28:23.737Z,78.30
2019-03-30T04:31:17.624Z,78.50
2019-03-30T04:34:02.382Z,78.60
2019-03-30T04:36:47.014Z,78.90
2019-03-30T04:39:32.326Z,78.70
2019-03-30T04:42:26.323Z,78.50
2019-03-30T04:45:11.168Z,79.00
2019-03-30T04:47:55.847Z,78.70
2019-03-30T04:50:40.473Z,78.60
2019-03-30T04:53:25.111Z,78.60
2019-03-30T04:56:09.386Z,78.40
2019-03-30T04:58:54.263Z,78.70
2019-03-30T05:01:38.511Z,78.80
2019-03-30T05:04:32.767Z,79.30
2019-03-30T05:07:26.983Z,79.60
2019-03-30T05:10:26.321Z,79.70
2019-03-30T05:13:11.555Z,79.70
2019-03-30T05:15:56.106Z,80.00
2019-03-30T05:18:40.438Z,80.10
2019-03-30T05:21:24.817Z,80.20
2019-03-30T05:24:18.743Z,80.00
2019-03-30T05:27:12.551Z,80.00
2019-03-30T05:29:57.991Z,80.00
2019-03-30T05:33:04.902Z,79.90
2019-03-30T05:35:47.158Z,78.90
2019-03-30T05:38:31.955Z,78.40
2019-03-30T05:41:16.774Z,78.20
2019-03-30T05:44:01.050Z,78.30
2019-03-30T05:46:46.258Z,78.20
2019-03-30T05:49:31.035Z,78.00
2019-03-30T05:52:26.407Z,77.40
2019-03-30T05:55:02.247Z,77.00
2019-03-30T05:57:47.447Z,77.00
2019-03-30T06:00:43.412Z,77.30
2019-03-30T06:03:27.915Z,77.80
2019-03-30T06:06:12.800Z,77.90
2019-03-30T06:08:57.458Z,78.20
2019-03-30T06:11:42.518Z,78.70
2019-03-30T06:14:27.447Z,78.50
2019-03-30T06:17:12.760Z,78.60
2019-03-30T06:20:06.292Z,78.50
2019-03-30T06:22:50.887Z,77.80
2019-03-30T06:25:35.735Z,77.50
2019-03-30T06:28:20.759Z,76.80
2019-03-30T06:31:05.887Z,75.80
2019-03-30T06:33:59.147Z,75.10
2019-03-30T06:36:43.803Z,75.80
2019-03-30T06:39:28.664Z,74.50
2019-03-30T06:42:13.502Z,74.30
2019-03-30T06:44:58.142Z,73.70
2019-03-30T06:47:43.257Z,73.20
2019-03-30T06:50:27.995Z,72.90
2019-03-30T06:53:12.483Z,72.40
2019-03-30T06:55:58.130Z,72.00
2019-03-30T06:58:42.947Z,71.60
2019-03-30T07:01:27.783Z,71.10
2019-03-30T07:04:13.169Z,70.80
2019-03-30T07:06:57.887Z,70.90
2019-03-30T07:09:51.556Z,70.50
2019-03-30T07:12:36.719Z,70.10
2019-03-30T07:15:31.739Z,70.00
2019-03-30T07:18:16.739Z,68.10
2019-03-30T07:21:01.710Z,67.70
2019-03-30T07:23:46.355Z,67.40
2019-03-30T07:26:31.511Z,67.40
2019-03-30T07:29:16.355Z,67.00
2019-03-30T07:32:01.798Z,66.50
2019-03-30T07:34:56.040Z,66.00
2019-03-30T07:37:49.435Z,66.70
2019-03-30T07:40:34.172Z,65.90
2019-03-30T07:43:17.573Z,65.50
2019-03-30T07:49:37.740Z,64.70
2019-03-30T07:52:22.296Z,64.50
2019-03-30T07:55:06.768Z,64.10
2019-03-30T07:58:00.057Z,64.00
2019-03-30T08:00:44.583Z,63.80
2019-03-30T08:03:29.715Z,63.90
2019-03-30T08:06:14.354Z,63.40
2019-03-30T08:08:59.603Z,63.50
2019-03-30T08:11:44.258Z,63.30
2019-03-30T08:14:28.831Z,62.80
2019-03-30T08:17:14.200Z,62.30
2019-03-30T08:19:59.358Z,62.00
2019-03-30T08:22:53.134Z,61.70
2019-03-30T08:25:37.558Z,61.50
2019-03-30T08:28:23.777Z,61.20
2019-03-30T08:31:08.971Z,61.30
2019-03-30T08:33:53.955Z,61.80
2019-03-30T08:36:38.819Z,61.40
2019-03-30T08:39:24.023Z,60.40
2019-03-30T08:42:17.567Z,60.10
2019-03-30T08:45:02.122Z,60.00
2019-03-30T08:47:47.079Z,59.90
2019-03-30T08:50:31.771Z,59.50
2019-03-30T08:53:16.510Z,59.50
2019-03-30T08:56:01.322Z,59.40
2019-03-30T08:58:46.211Z,59.00
2019-03-30T09:01:31.619Z,58.50
2019-03-30T09:04:25.141Z,58.00
2019-03-30T09:07:09.702Z,57.80
2019-03-30T09:09:54.419Z,57.40
2019-03-30T09:12:39.078Z,57.20
2019-03-30T09:15:34.111Z,56.80
2019-03-30T09:18:19.091Z,56.20
2019-03-30T09:21:12.891Z,55.60
2019-03-30T09:24:08.865Z,55.60
2019-03-30T09:26:45.925Z,55.10
2019-03-30T09:29:39.689Z,54.50
2019-03-30T09:32:24.418Z,54.00
2019-03-30T09:35:09.182Z,53.50
2019-03-30T09:37:53.931Z,52.90
2019-03-30T09:40:38.611Z,52.40
2019-03-30T09:43:22.579Z,51.70
2019-03-30T09:46:16.631Z,51.50
2019-03-30T09:49:10.492Z,51.00
2019-03-30T09:51:55.473Z,49.80
2019-03-30T09:54:40.211Z,49.30
2019-03-30T09:57:25.066Z,48.40
2019-03-30T10:00:09.629Z,47.70
2019-03-30T10:02:54.433Z,47.10
2019-03-30T10:05:38.999Z,46.10
2019-03-30T10:08:23.563Z,45.40
2019-03-30T10:11:07.878Z,44.60
2019-03-30T10:14:01.367Z,43.50
2019-03-30T10:16:48.640Z,43.40
2019-03-30T10:19:32.306Z,42.80
2019-03-30T10:22:16.763Z,42.70
2019-03-30T10:25:00.990Z,42.60
2019-03-30T10:27:46.775Z,41.00
2019-03-30T10:30:31.556Z,39.90
2019-03-30T10:33:16.684Z,38.90
2019-03-30T10:36:00.907Z,38.40
2019-03-30T10:38:46.196Z,38.00
2019-03-30T10:41:31.110Z,38.00
2019-03-30T10:44:15.686Z,37.10
2019-03-30T10:47:00.550Z,36.40
2019-03-30T10:49:45.537Z,36.40
2019-03-30T10:52:31.118Z,35.20
2019-03-30T10:55:16.102Z,34.80
2019-03-30T10:58:00.711Z,34.70
2019-03-30T11:00:46.063Z,34.60
2019-03-30T11:03:30.924Z,34.10
2019-03-30T11:06:15.900Z,33.30
2019-03-30T11:09:00.733Z,32.60
2019-03-30T11:11:47.028Z,32.50
2019-03-30T11:14:32.026Z,31.50
2019-03-30T11:17:19.397Z,31.00
2019-03-30T11:20:03.970Z,31.00
2019-03-30T11:22:48.512Z,30.40
2019-03-30T11:25:42.380Z,29.40
2019-03-30T11:28:36.242Z,29.50
2019-03-30T11:31:21.126Z,29.50
2019-03-30T11:34:05.708Z,29.10
2019-03-30T11:36:50.612Z,28.70
2019-03-30T11:39:35.322Z,28.70
2019-03-30T11:42:19.625Z,27.90
2019-03-30T11:45:04.463Z,28.50
2019-03-30T11:47:48.774Z,28.70
2019-03-30T11:50:47.279Z,27.80
2019-03-30T11:53:40.776Z,27.40
2019-03-30T11:56:24.322Z,26.90
2019-03-30T11:59:09.131Z,26.60
2019-03-30T12:01:53.880Z,25.80
2019-03-30T12:04:38.701Z,25.70
2019-03-30T12:07:23.719Z,24.40
2019-03-30T12:10:17.955Z,23.70
2019-03-30T12:13:11.582Z,23.50
2019-03-30T12:15:56.132Z,23.80
2019-03-30T12:18:41.162Z,24.20
2019-03-30T12:21:25.963Z,24.50
2019-03-30T12:24:10.676Z,24.50
2019-03-30T12:26:55.734Z,23.70
2019-03-30T12:29:44.404Z,23.90
2019-03-30T12:32:28.324Z,24.50
2019-03-30T12:35:12.851Z,24.80
2019-03-30T12:37:57.053Z,24.80
2019-03-30T12:40:51.335Z,24.30
2019-03-30T12:43:45.143Z,24.10
2019-03-30T12:46:39.364Z,24.40
2019-03-30T12:49:33.415Z,25.00
2019-03-30T12:52:27.305Z,24.60
2019-03-30T12:55:12.482Z,24.20
2019-03-30T12:58:12.053Z,24.20
2019-03-30T13:00:57.598Z,23.90
2019-03-30T13:03:51.137Z,23.60
2019-03-30T13:06:37.223Z,23.70
2019-03-30T13:09:22.071Z,23.20
2019-03-30T13:12:06.607Z,23.10
2019-03-30T13:14:51.548Z,23.50
2019-03-30T13:17:36.408Z,23.40
2019-03-30T13:20:21.223Z,23.20
2019-03-30T13:23:06.266Z,23.20
2019-03-30T13:26:02.887Z,23.00
2019-03-30T13:28:36.675Z,22.70
2019-03-30T13:31:30.392Z,23.00
2019-03-30T13:34:14.924Z,22.80
2019-03-30T13:36:59.748Z,22.40
2019-03-30T13:39:44.736Z,22.20
2019-03-30T13:42:29.719Z,22.40
2019-03-30T13:45:23.828Z,22.20
2019-03-30T13:48:17.403Z,21.90
2019-03-30T13:51:01.943Z,21.90
2019-03-30T13:53:46.931Z,21.90
2019-03-30T13:56:31.531Z,21.90
2019-03-30T13:59:15.919Z,21.90
2019-03-30T14:02:02.060Z,22.10
2019-03-30T14:04:56.420Z,21.80
2019-03-30T14:07:49.663Z,21.50
2019-03-30T14:10:34.335Z,21.50
2019-03-30T14:13:18.714Z,21.40
2019-03-30T14:16:12.587Z,21.40
2019-03-30T14:19:14.658Z,21.60
2019-03-30T14:22:08.807Z,21.90
2019-03-30T14:25:02.518Z,21.70
2019-03-30T14:27:47.367Z,21.70
2019-03-30T14:30:32.287Z,21.50
2019-03-30T14:33:17.228Z,21.20
2019-03-30T14:36:01.998Z,21.10
2019-03-30T14:38:46.598Z,21.20
2019-03-30T14:41:31.391Z,21.00
2019-03-30T14:44:16.359Z,20.90
2019-03-30T14:47:01.412Z,20.60
2019-03-30T14:49:53.969Z,20.40
2019-03-30T14:52:39.126Z,21.10
2019-03-30T14:55:32.427Z,21.20
2019-03-30T14:58:17.341Z,21.30
2019-03-30T15:01:03.339Z,21.20
2019-03-30T15:03:48.395Z,21.20
2019-03-30T15:06:33.595Z,21.00
2019-03-30T15:09:18.486Z,21.30
2019-03-30T15:12:12.823Z,21.20
2019-03-30T15:15:06.415Z,21.30
2019-03-30T15:17:51.388Z,21.30
2019-03-30T15:20:36.407Z,21.60
2019-03-30T15:23:33.182Z,21.50
2019-03-30T15:26:17.918Z,21.40
2019-03-30T15:29:02.471Z,21.30
2019-03-30T15:31:57.107Z,21.50
2019-03-30T15:34:41.771Z,21.70
2019-03-30T15:37:26.751Z,21.60
2019-03-30T15:40:11.238Z,21.90
2019-03-30T15:42:55.728Z,21.80
2019-03-30T15:45:49.163Z,22.00
2019-03-30T15:48:35.566Z,22.30
2019-03-30T15:51:20.690Z,22.60
2019-03-30T15:54:14.884Z,22.90
2019-03-30T15:57:25.350Z,23.10
2019-03-30T16:00:21.080Z,23.20
2019-03-30T16:03:06.314Z,23.30
2019-03-30T16:05:59.899Z,23.60
2019-03-30T16:08:44.419Z,23.70
2019-03-30T16:11:39.120Z,24.10
2019-03-30T16:14:23.671Z,24.40
2019-03-30T16:17:08.275Z,24.90
2019-03-30T16:19:53.769Z,25.30
2019-03-30T16:22:47.303Z,25.50
2019-03-30T16:25:32.211Z,25.60
2019-03-30T16:28:17.463Z,25.80
2019-03-30T16:31:11.419Z,25.80
2019-03-30T16:33:55.991Z,25.80
2019-03-30T16:36:41.215Z,25.90
2019-03-30T16:39:35.192Z,26.10
2019-03-30T16:42:20.134Z,26.10
2019-03-30T16:45:14.092Z,26.60
2019-03-30T16:47:58.369Z,26.30
2019-03-30T16:50:43.235Z,26.50
2019-03-30T16:53:28.135Z,26.80
2019-03-30T16:56:11.807Z,26.90
2019-03-30T16:59:04.283Z,26.90
2019-03-30T17:01:48.523Z,27.20
2019-03-30T17:04:32.879Z,27.50
2019-03-30T17:07:26.567Z,27.80
2019-03-30T17:10:11.403Z,27.80
2019-03-30T17:12:56.223Z,28.00
2019-03-30T17:15:40.756Z,28.50
2019-03-30T17:18:25.334Z,28.70
2019-03-30T17:21:09.995Z,29.20
2019-03-30T17:23:54.755Z,29.20
2019-03-30T17:26:39.519Z,29.00
2019-03-30T17:29:24.628Z,28.80
2019-03-30T17:32:09.534Z,29.10
2019-03-30T17:34:54.764Z,29.30
2019-03-30T17:37:40.037Z,29.40
2019-03-30T17:40:35.408Z,29.30
2019-03-30T17:43:29.327Z,29.60
2019-03-30T17:46:14.346Z,29.60
2019-03-30T17:49:08.887Z,29.80
2019-03-30T17:52:02.108Z,29.90
2019-03-30T17:54:46.446Z,30.30
2019-03-30T17:57:31.315Z,31.70
2019-03-30T18:00:17.635Z,32.20
2019-03-30T18:03:02.921Z,33.60
2019-03-30T18:05:47.632Z,33.70
2019-03-30T18:08:33.184Z,34.20
2019-03-30T18:11:27.745Z,34.60
2019-03-30T18:14:12.962Z,35.50
2019-03-30T18:16:58.134Z,36.00
2019-03-30T18:19:42.728Z,36.50
2019-03-30T18:22:27.696Z,36.80
2019-03-30T18:25:12.610Z,38.00
2019-03-30T18:27:57.651Z,38.70
2019-03-30T18:30:51.251Z,39.10
2019-03-30T18:33:35.898Z,39.30
2019-03-30T18:36:20.710Z,39.60
2019-03-30T18:39:09.829Z,39.90
2019-03-30T18:41:52.702Z,40.30
2019-03-30T18:44:46.755Z,40.00
2019-03-30T18:47:41.395Z,39.80
2019-03-30T18:50:26.053Z,40.10
2019-03-30T18:53:19.403Z,40.40
2019-03-30T18:56:04.451Z,41.30
2019-03-30T18:58:49.078Z,42.00
2019-03-30T19:01:34.207Z,41.90
2019-03-30T19:04:27.896Z,42.40
2019-03-30T19:07:12.902Z,43.00
2019-03-30T19:09:56.399Z,43.00
2019-03-30T19:12:50.244Z,43.40
2019-03-30T19:15:34.939Z,43.20
2019-03-30T19:18:19.568Z,43.00
2019-03-30T19:21:04.344Z,42.30
2019-03-30T19:23:49.499Z,42.20
2019-03-30T19:26:34.281Z,42.90
2019-03-30T19:29:19.295Z,43.60
2019-03-30T19:32:13.033Z,44.50
2019-03-30T19:34:57.879Z,45.10
2019-03-30T19:37:43.330Z,45.10
2019-03-30T19:40:37.315Z,44.90
2019-03-30T19:43:51.678Z,44.30
2019-03-30T19:46:45.507Z,43.90
2019-03-30T19:49:30.511Z,44.40
2019-03-30T19:52:15.384Z,45.20
2019-03-30T19:55:00.511Z,46.10
2019-03-30T19:57:54.120Z,45.50
2019-03-30T20:00:39.229Z,45.10
2019-03-30T20:03:33.459Z,45.50
2019-03-30T20:06:27.295Z,46.00
2019-03-30T20:09:11.806Z,46.40
2019-03-30T20:11:57.039Z,46.90
2019-03-30T20:14:50.867Z,47.40
2019-03-30T20:17:35.628Z,47.80
2019-03-30T20:20:20.027Z,48.30
2019-03-30T20:23:04.983Z,48.50
2019-03-30T20:25:49.855Z,48.40
2019-03-30T20:28:34.595Z,48.00
2019-03-30T20:31:19.787Z,47.90
2019-03-30T20:34:03.982Z,48.40
2019-03-30T20:36:57.328Z,48.50
2019-03-30T20:39:42.267Z,48.90
2019-03-30T20:42:27.163Z,48.70
2019-03-30T20:45:12.499Z,48.40
2019-03-30T20:48:06.096Z,48.10
2019-03-30T20:50:50.890Z,47.90
2019-03-30T20:53:35.830Z,48.40
2019-03-30T20:56:29.652Z,49.30
2019-03-30T20:59:14.858Z,50.30
2019-03-30T21:02:08.795Z,50.90
2019-03-30T21:05:02.431Z,51.10
2019-03-30T21:07:47.387Z,51.50
2019-03-30T21:10:31.720Z,51.60
2019-03-30T21:13:16.527Z,52.00
2019-03-30T21:16:11.168Z,52.20
2019-03-30T21:18:55.619Z,52.20
2019-03-30T21:21:50.395Z,51.70
2019-03-30T21:24:34.658Z,51.50
2019-03-30T21:27:19.695Z,52.00
2019-03-30T21:30:04.652Z,52.50
2019-03-30T21:32:51.544Z,53.00
2019-03-30T21:35:45.279Z,53.40
2019-03-30T21:38:30.223Z,53.60
2019-03-30T21:41:23.995Z,53.60
2019-03-30T21:44:21.331Z,54.00
2019-03-30T21:46:55.443Z,54.20
2019-03-30T21:49:40.288Z,54.30
2019-03-30T21:52:25.138Z,54.40
2019-03-30T21:55:10.874Z,54.80
2019-03-30T21:57:55.429Z,54.90
2019-03-30T22:00:40.217Z,55.10
2019-03-30T22:03:26.631Z,55.10
2019-03-30T22:06:11.739Z,55.20
2019-03-30T22:08:57.011Z,55.20
2019-03-30T22:11:41.539Z,55.30
2019-03-30T22:14:27.023Z,55.40
2019-03-30T22:17:21.394Z,55.30
2019-03-30T22:20:14.554Z,55.20
2019-03-30T22:22:59.443Z,55.50
2019-03-30T22:25:44.791Z,55.90
2019-03-30T22:28:38.368Z,56.00
2019-03-30T22:31:23.083Z,55.80
2019-03-30T22:34:07.947Z,55.90
2019-03-30T22:36:52.660Z,55.90
2019-03-30T22:39:37.647Z,56.10
2019-03-30T22:42:22.347Z,56.30
2019-03-30T22:45:07.716Z,56.50
2019-03-30T22:48:03.328Z,56.80
2019-03-30T22:50:57.421Z,57.10
2019-03-30T22:53:51.116Z,58.70
2019-03-30T22:56:35.862Z,58.80
2019-03-30T22:59:20.806Z,58.80
2019-03-30T23:02:05.108Z,58.80
2019-03-30T23:04:50.252Z,58.90
2019-03-30T23:07:35.027Z,59.00
2019-03-30T23:10:20.047Z,57.90
2019-03-30T23:13:04.947Z,57.90
2019-03-30T23:15:49.302Z,57.90
2019-03-30T23:18:34.198Z,57.70
2019-03-30T23:21:19.318Z,57.50
2019-03-30T23:24:03.711Z,57.60
2019-03-30T23:26:48.675Z,57.70
2019-03-30T23:29:43.999Z,58.00
2019-03-30T23:32:37.743Z,57.50
2019-03-30T23:35:22.479Z,57.60
2019-03-30T23:38:07.002Z,57.80
2019-03-30T23:40:52.205Z,57.80
2019-03-30T23:43:36.905Z,57.80
2019-03-30T23:46:21.966Z,58.00
2019-03-30T23:49:06.327Z,58.40
2019-03-30T23:51:51.301Z,59.50
2019-03-30T23:54:35.763Z,59.50
2019-03-30T23:57:20.530Z,59.70
